sensor_id;sensor_type;location;lat;lon;timestamp;noise_LAeq;noise_LA_min;noise_LA_max;noise_LA01;noise_LA95
77361;Laerm;66427;51.798;10.954;2023-05-10T00:01:47;50.87;30.23;67.85;;
77361;Laerm;66427;51.798;10.954;2023-05-10T00:04:12;33.02;29.26;43.51;;
77361;Laerm;66427;51.798;10.954;2023-05-10T00:06:38;35.11;28.57;49.02;;
77361;Laerm;66427;51.798;10.954;2023-05-10T00:09:04;34.03;28.79;47.43;;
77361;Laerm;66427;51.798;10.954;2023-05-10T00:11:30;32.89;28.10;48.84;;
77361;Laerm;66427;51.798;10.954;2023-05-10T00:13:55;29.68;28.05;36.03;;
77361;Laerm;66427;51.798;10.954;2023-05-10T00:16:21;31.79;28.69;41.05;;
77361;Laerm;66427;51.798;10.954;2023-05-10T00:18:47;32.34;28.47;43.68;;
77361;Laerm;66427;51.798;10.954;2023-05-10T00:21:13;30.50;28.73;40.82;;
77361;Laerm;66427;51.798;10.954;2023-05-10T00:23:39;30.30;28.75;41.69;;
77361;Laerm;66427;51.798;10.954;2023-05-10T00:26:05;33.14;28.69;41.81;;
77361;Laerm;66427;51.798;10.954;2023-05-10T00:28:31;31.68;29.30;41.65;;
77361;Laerm;66427;51.798;10.954;2023-05-10T00:30:57;31.57;29.09;37.25;;
77361;Laerm;66427;51.798;10.954;2023-05-10T00:33:22;30.13;28.54;36.82;;
77361;Laerm;66427;51.798;10.954;2023-05-10T00:35:48;31.77;28.47;36.87;;
77361;Laerm;66427;51.798;10.954;2023-05-10T00:38:14;31.41;29.25;36.71;;
77361;Laerm;66427;51.798;10.954;2023-05-10T00:40:40;29.38;27.97;31.98;;
77361;Laerm;66427;51.798;10.954;2023-05-10T00:43:06;31.30;28.72;38.48;;
77361;Laerm;66427;51.798;10.954;2023-05-10T00:45:34;30.70;28.88;41.23;;
77361;Laerm;66427;51.798;10.954;2023-05-10T00:48:01;31.15;29.13;44.47;;
77361;Laerm;66427;51.798;10.954;2023-05-10T00:50:27;30.99;28.42;36.12;;
77361;Laerm;66427;51.798;10.954;2023-05-10T00:52:53;30.97;29.16;35.87;;
77361;Laerm;66427;51.798;10.954;2023-05-10T00:55:20;32.53;29.19;42.74;;
77361;Laerm;66427;51.798;10.954;2023-05-10T00:57:46;29.29;27.94;31.63;;
77361;Laerm;66427;51.798;10.954;2023-05-10T01:00:12;30.82;28.73;33.97;;
77361;Laerm;66427;51.798;10.954;2023-05-10T01:02:43;30.72;29.00;38.45;;
77361;Laerm;66427;51.798;10.954;2023-05-10T01:05:09;30.65;28.97;35.52;;
77361;Laerm;66427;51.798;10.954;2023-05-10T01:07:34;31.66;29.10;42.47;;
77361;Laerm;66427;51.798;10.954;2023-05-10T01:10:00;30.93;28.71;38.38;;
77361;Laerm;66427;51.798;10.954;2023-05-10T01:12:26;31.64;29.67;38.71;;
77361;Laerm;66427;51.798;10.954;2023-05-10T01:14:52;30.64;28.81;34.12;;
77361;Laerm;66427;51.798;10.954;2023-05-10T01:17:18;29.99;28.29;38.87;;
77361;Laerm;66427;51.798;10.954;2023-05-10T01:19:45;31.10;28.88;35.94;;
77361;Laerm;66427;51.798;10.954;2023-05-10T01:27:41;32.05;29.85;39.72;;
77361;Laerm;66427;51.798;10.954;2023-05-10T01:31:13;31.85;28.72;43.56;;
77361;Laerm;66427;51.798;10.954;2023-05-10T01:38:21;32.34;29.43;40.95;;
77361;Laerm;66427;51.798;10.954;2023-05-10T01:40:54;33.05;29.70;45.25;;
77361;Laerm;66427;51.798;10.954;2023-05-10T01:43:26;32.24;28.89;49.12;;
77361;Laerm;66427;51.798;10.954;2023-05-10T01:46:02;32.12;29.65;48.95;;
77361;Laerm;66427;51.798;10.954;2023-05-10T01:48:36;33.58;29.13;45.94;;
77361;Laerm;66427;51.798;10.954;2023-05-10T01:51:03;45.15;29.70;58.52;;
77361;Laerm;66427;51.798;10.954;2023-05-10T01:53:30;34.42;31.06;41.28;;
77361;Laerm;66427;51.798;10.954;2023-05-10T01:55:56;33.18;29.55;46.05;;
77361;Laerm;66427;51.798;10.954;2023-05-10T01:58:27;46.48;29.44;68.97;;
77361;Laerm;66427;51.798;10.954;2023-05-10T02:00:53;51.95;30.33;73.95;;
77361;Laerm;66427;51.798;10.954;2023-05-10T02:03:22;47.93;29.75;62.87;;
77361;Laerm;66427;51.798;10.954;2023-05-10T02:05:49;32.55;29.18;44.29;;
77361;Laerm;66427;51.798;10.954;2023-05-10T02:08:16;32.29;28.94;41.07;;
77361;Laerm;66427;51.798;10.954;2023-05-10T02:10:42;34.17;29.41;48.57;;
77361;Laerm;66427;51.798;10.954;2023-05-10T02:13:10;32.89;29.40;40.40;;
77361;Laerm;66427;51.798;10.954;2023-05-10T02:15:36;48.46;29.09;63.62;;
77361;Laerm;66427;51.798;10.954;2023-05-10T02:18:03;42.90;30.31;59.44;;
77361;Laerm;66427;51.798;10.954;2023-05-10T02:20:30;36.79;30.68;50.88;;
77361;Laerm;66427;51.798;10.954;2023-05-10T02:22:57;34.07;30.02;46.43;;
77361;Laerm;66427;51.798;10.954;2023-05-10T02:25:23;51.52;30.51;67.76;;
77361;Laerm;66427;51.798;10.954;2023-05-10T02:27:48;42.04;29.69;54.67;;
77361;Laerm;66427;51.798;10.954;2023-05-10T02:30:15;48.84;30.40;60.80;;
77361;Laerm;66427;51.798;10.954;2023-05-10T02:32:42;50.32;31.08;62.41;;
77361;Laerm;66427;51.798;10.954;2023-05-10T02:35:08;50.39;31.85;63.95;;
77361;Laerm;66427;51.798;10.954;2023-05-10T02:37:35;55.02;33.86;69.38;;
77361;Laerm;66427;51.798;10.954;2023-05-10T02:40:02;53.89;33.80;68.84;;
77361;Laerm;66427;51.798;10.954;2023-05-10T02:42:29;42.75;32.71;56.39;;
77361;Laerm;66427;51.798;10.954;2023-05-10T02:44:59;43.57;31.50;56.28;;
77361;Laerm;66427;51.798;10.954;2023-05-10T02:47:25;42.71;32.47;54.52;;
77361;Laerm;66427;51.798;10.954;2023-05-10T02:49:51;45.79;31.56;56.21;;
77361;Laerm;66427;51.798;10.954;2023-05-10T02:52:19;44.35;32.49;54.91;;
77361;Laerm;66427;51.798;10.954;2023-05-10T02:54:48;47.77;33.60;61.86;;
77361;Laerm;66427;51.798;10.954;2023-05-10T02:57:15;46.57;34.58;56.97;;
77361;Laerm;66427;51.798;10.954;2023-05-10T02:59:44;46.53;33.64;56.23;;
77361;Laerm;66427;51.798;10.954;2023-05-10T03:02:10;48.33;32.04;60.29;;
77361;Laerm;66427;51.798;10.954;2023-05-10T03:04:37;47.22;32.88;57.10;;
77361;Laerm;66427;51.798;10.954;2023-05-10T03:07:03;46.50;32.42;55.63;;
77361;Laerm;66427;51.798;10.954;2023-05-10T03:09:29;46.95;34.09;55.76;;
77361;Laerm;66427;51.798;10.954;2023-05-10T03:17:10;51.60;33.57;67.46;;
77361;Laerm;66427;51.798;10.954;2023-05-10T03:19:53;40.52;33.54;49.58;;
77361;Laerm;66427;51.798;10.954;2023-05-10T03:22:24;53.20;33.18;70.41;;
77361;Laerm;66427;51.798;10.954;2023-05-10T03:24:51;53.93;33.77;70.67;;
77361;Laerm;66427;51.798;10.954;2023-05-10T03:27:19;43.51;34.45;58.50;;
77361;Laerm;66427;51.798;10.954;2023-05-10T03:29:46;51.39;34.74;63.13;;
77361;Laerm;66427;51.798;10.954;2023-05-10T03:32:12;49.91;34.22;64.53;;
77361;Laerm;66427;51.798;10.954;2023-05-10T03:34:41;47.54;36.19;60.46;;
77361;Laerm;66427;51.798;10.954;2023-05-10T03:37:08;49.18;36.58;62.62;;
77361;Laerm;66427;51.798;10.954;2023-05-10T03:39:34;43.54;35.23;56.81;;
77361;Laerm;66427;51.798;10.954;2023-05-10T03:42:00;42.35;35.80;51.03;;
77361;Laerm;66427;51.798;10.954;2023-05-10T03:44:27;49.66;36.85;62.69;;
77361;Laerm;66427;51.798;10.954;2023-05-10T03:46:55;50.97;35.09;67.50;;
77361;Laerm;66427;51.798;10.954;2023-05-10T03:49:22;48.51;37.52;63.57;;
77361;Laerm;66427;51.798;10.954;2023-05-10T03:51:48;51.06;36.61;67.46;;
77361;Laerm;66427;51.798;10.954;2023-05-10T03:54:13;54.84;37.49;68.20;;
77361;Laerm;66427;51.798;10.954;2023-05-10T03:56:39;50.16;36.58;66.24;;
77361;Laerm;66427;51.798;10.954;2023-05-10T03:59:05;48.95;37.27;58.80;;
77361;Laerm;66427;51.798;10.954;2023-05-10T04:01:33;55.16;36.62;68.01;;
77361;Laerm;66427;51.798;10.954;2023-05-10T04:03:58;50.31;36.38;64.86;;
77361;Laerm;66427;51.798;10.954;2023-05-10T04:06:24;41.20;36.94;50.61;;
77361;Laerm;66427;51.798;10.954;2023-05-10T04:08:51;44.16;37.07;62.83;;
77361;Laerm;66427;51.798;10.954;2023-05-10T04:11:16;54.12;37.72;66.84;;
77361;Laerm;66427;51.798;10.954;2023-05-10T04:13:42;46.09;37.25;60.62;;
77361;Laerm;66427;51.798;10.954;2023-05-10T04:16:09;45.73;36.22;59.55;;
77361;Laerm;66427;51.798;10.954;2023-05-10T04:18:34;47.38;38.50;61.23;;
77361;Laerm;66427;51.798;10.954;2023-05-10T04:21:00;44.35;39.83;56.37;;
77361;Laerm;66427;51.798;10.954;2023-05-10T04:23:26;53.01;40.56;65.77;;
77361;Laerm;66427;51.798;10.954;2023-05-10T04:25:58;54.94;41.48;70.85;;
77361;Laerm;66427;51.798;10.954;2023-05-10T04:28:24;54.71;39.39;67.06;;
77361;Laerm;66427;51.798;10.954;2023-05-10T04:30:50;52.61;40.61;65.02;;
77361;Laerm;66427;51.798;10.954;2023-05-10T04:33:15;55.67;39.68;74.29;;
77361;Laerm;66427;51.798;10.954;2023-05-10T04:35:41;50.52;39.96;64.76;;
77361;Laerm;66427;51.798;10.954;2023-05-10T04:38:07;54.17;40.03;66.11;;
77361;Laerm;66427;51.798;10.954;2023-05-10T04:40:33;43.68;39.70;55.54;;
77361;Laerm;66427;51.798;10.954;2023-05-10T04:42:59;53.78;40.72;66.92;;
77361;Laerm;66427;51.798;10.954;2023-05-10T04:45:25;58.19;41.67;71.94;;
77361;Laerm;66427;51.798;10.954;2023-05-10T04:47:50;50.73;40.36;62.16;;
77361;Laerm;66427;51.798;10.954;2023-05-10T04:50:16;57.21;42.92;65.54;;
77361;Laerm;66427;51.798;10.954;2023-05-10T04:52:42;59.41;45.49;71.75;;
77361;Laerm;66427;51.798;10.954;2023-05-10T04:55:08;55.30;44.76;67.69;;
77361;Laerm;66427;51.798;10.954;2023-05-10T04:57:34;62.14;45.17;76.28;;
77361;Laerm;66427;51.798;10.954;2023-05-10T05:00:00;54.12;40.70;66.68;;
77361;Laerm;66427;51.798;10.954;2023-05-10T05:02:27;56.84;39.23;70.95;;
77361;Laerm;66427;51.798;10.954;2023-05-10T05:04:55;57.30;41.10;71.68;;
77361;Laerm;66427;51.798;10.954;2023-05-10T05:07:23;55.41;38.78;68.31;;
77361;Laerm;66427;51.798;10.954;2023-05-10T05:09:49;53.80;38.04;68.78;;
77361;Laerm;66427;51.798;10.954;2023-05-10T05:12:15;52.23;38.56;64.41;;
77361;Laerm;66427;51.798;10.954;2023-05-10T05:14:41;57.22;37.01;67.00;;
77361;Laerm;66427;51.798;10.954;2023-05-10T05:17:07;57.37;37.87;68.62;;
77361;Laerm;66427;51.798;10.954;2023-05-10T05:19:33;56.87;36.93;68.73;;
77361;Laerm;66427;51.798;10.954;2023-05-10T05:22:00;62.55;38.82;77.01;;
77361;Laerm;66427;51.798;10.954;2023-05-10T05:24:25;59.34;40.38;70.33;;
77361;Laerm;66427;51.798;10.954;2023-05-10T05:26:51;56.70;41.41;66.72;;
77361;Laerm;66427;51.798;10.954;2023-05-10T05:29:17;56.86;41.33;67.00;;
77361;Laerm;66427;51.798;10.954;2023-05-10T05:31:43;54.84;42.57;67.16;;
77361;Laerm;66427;51.798;10.954;2023-05-10T05:34:09;56.95;42.74;72.34;;
77361;Laerm;66427;51.798;10.954;2023-05-10T05:36:35;54.60;40.76;66.35;;
77361;Laerm;66427;51.798;10.954;2023-05-10T05:39:03;60.82;42.37;79.01;;
77361;Laerm;66427;51.798;10.954;2023-05-10T05:41:29;56.54;41.95;72.60;;
77361;Laerm;66427;51.798;10.954;2023-05-10T05:43:57;53.71;41.30;67.09;;
77361;Laerm;66427;51.798;10.954;2023-05-10T05:46:22;57.63;42.38;72.44;;
77361;Laerm;66427;51.798;10.954;2023-05-10T05:48:48;60.06;40.33;81.66;;
77361;Laerm;66427;51.798;10.954;2023-05-10T05:51:14;56.06;39.80;68.37;;
77361;Laerm;66427;51.798;10.954;2023-05-10T05:53:40;52.13;41.41;63.99;;
77361;Laerm;66427;51.798;10.954;2023-05-10T05:56:06;58.15;43.55;74.07;;
77361;Laerm;66427;51.798;10.954;2023-05-10T05:58:33;55.36;42.25;69.03;;
77361;Laerm;66427;51.798;10.954;2023-05-10T06:00:58;50.43;41.50;64.32;;
77361;Laerm;66427;51.798;10.954;2023-05-10T06:03:24;56.56;41.40;69.46;;
77361;Laerm;66427;51.798;10.954;2023-05-10T06:05:51;52.75;40.55;64.01;;
77361;Laerm;66427;51.798;10.954;2023-05-10T06:08:16;56.36;39.73;67.44;;
77361;Laerm;66427;51.798;10.954;2023-05-10T06:10:42;53.51;41.47;68.95;;
77361;Laerm;66427;51.798;10.954;2023-05-10T06:13:08;54.26;39.02;68.90;;
77361;Laerm;66427;51.798;10.954;2023-05-10T06:15:34;56.35;37.51;71.90;;
77361;Laerm;66427;51.798;10.954;2023-05-10T06:18:00;52.65;38.40;66.58;;
77361;Laerm;66427;51.798;10.954;2023-05-10T06:20:26;56.32;46.70;71.05;;
77361;Laerm;66427;51.798;10.954;2023-05-10T06:22:52;51.52;38.65;65.13;;
77361;Laerm;66427;51.798;10.954;2023-05-10T06:25:18;53.94;39.77;65.77;;
77361;Laerm;66427;51.798;10.954;2023-05-10T06:27:44;56.81;40.07;71.23;;
77361;Laerm;66427;51.798;10.954;2023-05-10T06:30:10;56.85;42.37;68.15;;
77361;Laerm;66427;51.798;10.954;2023-05-10T06:32:38;55.76;45.47;67.94;;
77361;Laerm;66427;51.798;10.954;2023-05-10T06:35:04;57.74;37.12;71.83;;
77361;Laerm;66427;51.798;10.954;2023-05-10T06:37:29;49.70;35.68;65.76;;
77361;Laerm;66427;51.798;10.954;2023-05-10T06:39:56;50.05;37.98;63.25;;
77361;Laerm;66427;51.798;10.954;2023-05-10T06:42:21;52.81;39.55;65.11;;
77361;Laerm;66427;51.798;10.954;2023-05-10T06:44:50;55.13;40.84;65.65;;
77361;Laerm;66427;51.798;10.954;2023-05-10T06:47:16;57.85;41.15;74.35;;
77361;Laerm;66427;51.798;10.954;2023-05-10T06:49:42;58.13;42.60;65.88;;
77361;Laerm;66427;51.798;10.954;2023-05-10T06:52:07;53.23;45.29;65.08;;
77361;Laerm;66427;51.798;10.954;2023-05-10T06:54:33;54.97;40.59;65.86;;
77361;Laerm;66427;51.798;10.954;2023-05-10T06:56:59;58.18;45.34;69.35;;
77361;Laerm;66427;51.798;10.954;2023-05-10T06:59:25;60.78;45.31;68.99;;
77361;Laerm;66427;51.798;10.954;2023-05-10T07:01:51;64.29;62.06;68.94;;
77361;Laerm;66427;51.798;10.954;2023-05-10T07:04:16;67.81;52.24;81.42;;
77361;Laerm;66427;51.798;10.954;2023-05-10T07:06:42;58.30;46.08;69.75;;
77361;Laerm;66427;51.798;10.954;2023-05-10T07:09:08;56.32;45.70;68.92;;
77361;Laerm;66427;51.798;10.954;2023-05-10T07:11:34;55.87;39.51;70.15;;
77361;Laerm;66427;51.798;10.954;2023-05-10T07:14:00;57.38;37.77;71.84;;
77361;Laerm;66427;51.798;10.954;2023-05-10T07:16:26;52.26;37.67;64.34;;
77361;Laerm;66427;51.798;10.954;2023-05-10T07:18:51;57.33;40.65;71.19;;
77361;Laerm;66427;51.798;10.954;2023-05-10T07:21:18;55.91;39.91;70.27;;
77361;Laerm;66427;51.798;10.954;2023-05-10T07:23:44;55.73;39.33;72.07;;
77361;Laerm;66427;51.798;10.954;2023-05-10T07:26:10;56.89;40.48;66.91;;
77361;Laerm;66427;51.798;10.954;2023-05-10T07:28:36;54.16;43.98;64.87;;
77361;Laerm;66427;51.798;10.954;2023-05-10T07:31:04;55.63;44.94;65.24;;
77361;Laerm;66427;51.798;10.954;2023-05-10T07:33:30;60.90;38.79;77.00;;
77361;Laerm;66427;51.798;10.954;2023-05-10T07:35:56;58.22;39.37;67.23;;
77361;Laerm;66427;51.798;10.954;2023-05-10T07:38:22;62.35;40.22;79.27;;
77361;Laerm;66427;51.798;10.954;2023-05-10T07:40:48;55.41;40.01;64.76;;
77361;Laerm;66427;51.798;10.954;2023-05-10T07:43:14;54.72;37.28;67.77;;
77361;Laerm;66427;51.798;10.954;2023-05-10T07:45:41;54.30;38.69;70.05;;
77361;Laerm;66427;51.798;10.954;2023-05-10T07:48:08;55.68;38.20;70.69;;
77361;Laerm;66427;51.798;10.954;2023-05-10T07:50:34;54.97;38.18;66.91;;
77361;Laerm;66427;51.798;10.954;2023-05-10T07:53:00;56.92;38.15;66.85;;
77361;Laerm;66427;51.798;10.954;2023-05-10T07:55:26;50.72;38.37;65.09;;
77361;Laerm;66427;51.798;10.954;2023-05-10T07:57:51;51.19;39.15;63.78;;
77361;Laerm;66427;51.798;10.954;2023-05-10T08:00:18;58.55;39.38;71.07;;
77361;Laerm;66427;51.798;10.954;2023-05-10T08:02:45;40.87;37.62;47.33;;
77361;Laerm;66427;51.798;10.954;2023-05-10T08:05:10;49.53;37.15;64.13;;
77361;Laerm;66427;51.798;10.954;2023-05-10T08:07:36;56.32;38.43;70.20;;
77361;Laerm;66427;51.798;10.954;2023-05-10T08:10:02;48.81;38.87;63.12;;
77361;Laerm;66427;51.798;10.954;2023-05-10T08:12:29;58.65;40.22;75.66;;
77361;Laerm;66427;51.798;10.954;2023-05-10T08:14:55;57.57;41.82;67.37;;
77361;Laerm;66427;51.798;10.954;2023-05-10T08:17:21;52.91;42.28;64.28;;
77361;Laerm;66427;51.798;10.954;2023-05-10T08:19:46;52.84;38.21;65.63;;
77361;Laerm;66427;51.798;10.954;2023-05-10T08:22:12;55.30;39.50;69.69;;
77361;Laerm;66427;51.798;10.954;2023-05-10T08:24:38;56.55;37.83;67.22;;
77361;Laerm;66427;51.798;10.954;2023-05-10T08:27:04;63.33;44.00;78.43;;
77361;Laerm;66427;51.798;10.954;2023-05-10T08:29:30;59.36;38.54;69.29;;
77361;Laerm;66427;51.798;10.954;2023-05-10T08:31:56;55.60;38.03;70.39;;
77361;Laerm;66427;51.798;10.954;2023-05-10T08:34:22;62.27;39.44;79.39;;
77361;Laerm;66427;51.798;10.954;2023-05-10T08:36:48;55.94;37.94;66.91;;
77361;Laerm;66427;51.798;10.954;2023-05-10T08:39:14;63.20;38.26;80.47;;
77361;Laerm;66427;51.798;10.954;2023-05-10T08:41:40;53.98;38.14;67.13;;
77361;Laerm;66427;51.798;10.954;2023-05-10T08:44:10;57.43;40.14;73.65;;
77361;Laerm;66427;51.798;10.954;2023-05-10T08:46:36;57.61;39.09;67.76;;
77361;Laerm;66427;51.798;10.954;2023-05-10T08:49:06;57.84;38.05;72.39;;
77361;Laerm;66427;51.798;10.954;2023-05-10T08:51:36;59.23;41.27;67.80;;
77361;Laerm;66427;51.798;10.954;2023-05-10T08:54:03;59.11;39.21;76.15;;
77361;Laerm;66427;51.798;10.954;2023-05-10T08:56:30;55.82;37.09;67.37;;
77361;Laerm;66427;51.798;10.954;2023-05-10T08:58:57;56.36;35.21;69.13;;
77361;Laerm;66427;51.798;10.954;2023-05-10T09:01:24;63.58;37.44;79.04;;
77361;Laerm;66427;51.798;10.954;2023-05-10T09:03:52;54.89;38.27;64.13;;
77361;Laerm;66427;51.798;10.954;2023-05-10T09:06:19;56.97;39.26;67.00;;
77361;Laerm;66427;51.798;10.954;2023-05-10T09:08:46;60.08;38.13;71.21;;
77361;Laerm;66427;51.798;10.954;2023-05-10T09:11:13;53.36;36.88;68.27;;
77361;Laerm;66427;51.798;10.954;2023-05-10T09:13:39;56.41;39.55;68.53;;
77361;Laerm;66427;51.798;10.954;2023-05-10T09:16:05;54.23;37.06;67.07;;
77361;Laerm;66427;51.798;10.954;2023-05-10T09:18:32;55.20;37.85;65.26;;
77361;Laerm;66427;51.798;10.954;2023-05-10T09:20:57;62.62;39.12;77.81;;
77361;Laerm;66427;51.798;10.954;2023-05-10T09:23:23;55.82;36.44;68.43;;
77361;Laerm;66427;51.798;10.954;2023-05-10T09:26:02;55.14;38.89;66.20;;
77361;Laerm;66427;51.798;10.954;2023-05-10T09:28:33;61.23;40.82;77.80;;
77361;Laerm;66427;51.798;10.954;2023-05-10T09:30:59;57.83;37.48;69.13;;
77361;Laerm;66427;51.798;10.954;2023-05-10T09:33:25;59.94;38.57;74.13;;
77361;Laerm;66427;51.798;10.954;2023-05-10T09:35:51;58.80;40.07;72.30;;
77361;Laerm;66427;51.798;10.954;2023-05-10T09:38:20;62.84;42.02;74.33;;
77361;Laerm;66427;51.798;10.954;2023-05-10T09:40:51;57.12;42.86;74.94;;
77361;Laerm;66427;51.798;10.954;2023-05-10T09:43:19;65.61;45.80;79.35;;
77361;Laerm;66427;51.798;10.954;2023-05-10T09:45:45;62.76;42.46;79.47;;
77361;Laerm;66427;51.798;10.954;2023-05-10T09:48:13;50.83;37.99;70.13;;
77361;Laerm;66427;51.798;10.954;2023-05-10T09:50:39;56.04;37.12;68.13;;
77361;Laerm;66427;51.798;10.954;2023-05-10T09:53:06;54.48;36.83;66.76;;
77361;Laerm;66427;51.798;10.954;2023-05-10T09:58:04;57.75;42.17;68.68;;
77361;Laerm;66427;51.798;10.954;2023-05-10T10:00:44;55.50;39.65;67.18;;
77361;Laerm;66427;51.798;10.954;2023-05-10T10:03:14;58.83;40.87;71.24;;
77361;Laerm;66427;51.798;10.954;2023-05-10T10:05:40;62.65;42.17;77.62;;
77361;Laerm;66427;51.798;10.954;2023-05-10T10:08:08;55.76;39.19;68.63;;
77361;Laerm;66427;51.798;10.954;2023-05-10T10:10:34;61.05;42.59;70.56;;
77361;Laerm;66427;51.798;10.954;2023-05-10T10:13:00;59.68;39.13;75.78;;
77361;Laerm;66427;51.798;10.954;2023-05-10T10:15:26;53.31;39.79;64.61;;
77361;Laerm;66427;51.798;10.954;2023-05-10T10:17:54;55.29;39.24;65.91;;
77361;Laerm;66427;51.798;10.954;2023-05-10T10:20:21;58.72;39.43;69.74;;
77361;Laerm;66427;51.798;10.954;2023-05-10T10:22:48;56.29;37.98;67.78;;
77361;Laerm;66427;51.798;10.954;2023-05-10T10:25:15;60.54;41.19;70.80;;
77361;Laerm;66427;51.798;10.954;2023-05-10T10:30:13;47.83;39.17;57.75;;
77361;Laerm;66427;51.798;10.954;2023-05-10T10:32:52;61.38;40.29;72.20;;
77361;Laerm;66427;51.798;10.954;2023-05-10T10:35:26;64.30;43.06;74.98;;
77361;Laerm;66427;51.798;10.954;2023-05-10T10:37:53;59.50;38.38;69.09;;
77361;Laerm;66427;51.798;10.954;2023-05-10T10:40:22;56.91;38.63;67.63;;
77361;Laerm;66427;51.798;10.954;2023-05-10T10:42:48;54.82;37.98;66.02;;
77361;Laerm;66427;51.798;10.954;2023-05-10T10:45:19;55.82;38.12;68.23;;
77361;Laerm;66427;51.798;10.954;2023-05-10T10:47:46;61.27;40.87;77.42;;
77361;Laerm;66427;51.798;10.954;2023-05-10T10:50:13;58.37;39.51;70.35;;
77361;Laerm;66427;51.798;10.954;2023-05-10T10:52:41;57.98;39.19;72.75;;
77361;Laerm;66427;51.798;10.954;2023-05-10T10:55:08;55.90;39.36;68.61;;
77361;Laerm;66427;51.798;10.954;2023-05-10T11:02:50;57.58;39.09;68.77;;
77361;Laerm;66427;51.798;10.954;2023-05-10T11:07:58;58.43;42.07;71.92;;
77361;Laerm;66427;51.798;10.954;2023-05-10T11:10:25;63.20;44.17;79.51;;
77361;Laerm;66427;51.798;10.954;2023-05-10T11:13:01;56.48;42.56;68.75;;
77361;Laerm;66427;51.798;10.954;2023-05-10T11:15:34;58.40;42.51;70.45;;
77361;Laerm;66427;51.798;10.954;2023-05-10T11:18:16;58.60;42.62;71.96;;
77361;Laerm;66427;51.798;10.954;2023-05-10T11:20:41;54.11;42.68;67.54;;
77361;Laerm;66427;51.798;10.954;2023-05-10T11:23:11;62.68;40.46;78.36;;
77361;Laerm;66427;51.798;10.954;2023-05-10T11:25:41;57.26;44.44;69.74;;
77361;Laerm;66427;51.798;10.954;2023-05-10T11:28:07;58.22;42.50;68.30;;
77361;Laerm;66427;51.798;10.954;2023-05-10T11:30:32;60.28;41.06;72.03;;
77361;Laerm;66427;51.798;10.954;2023-05-10T11:32:58;60.90;39.19;76.40;;
77361;Laerm;66427;51.798;10.954;2023-05-10T11:35:27;61.80;39.05;77.69;;
77361;Laerm;66427;51.798;10.954;2023-05-10T11:37:53;60.83;41.71;72.73;;
77361;Laerm;66427;51.798;10.954;2023-05-10T11:40:18;57.96;39.53;70.22;;
77361;Laerm;66427;51.798;10.954;2023-05-10T11:42:46;60.30;41.83;73.22;;
77361;Laerm;66427;51.798;10.954;2023-05-10T11:45:12;59.81;40.86;70.23;;
77361;Laerm;66427;51.798;10.954;2023-05-10T11:47:38;59.22;40.10;76.46;;
77361;Laerm;66427;51.798;10.954;2023-05-10T11:50:04;62.31;42.86;74.42;;
77361;Laerm;66427;51.798;10.954;2023-05-10T11:52:35;56.65;38.83;74.73;;
77361;Laerm;66427;51.798;10.954;2023-05-10T11:55:01;45.66;37.32;63.36;;
77361;Laerm;66427;51.798;10.954;2023-05-10T11:57:27;53.06;37.55;68.43;;
77361;Laerm;66427;51.798;10.954;2023-05-10T11:59:53;58.35;37.70;72.59;;
77361;Laerm;66427;51.798;10.954;2023-05-10T12:02:20;56.16;39.47;68.94;;
77361;Laerm;66427;51.798;10.954;2023-05-10T12:04:46;63.21;43.63;76.76;;
77361;Laerm;66427;51.798;10.954;2023-05-10T12:07:12;59.56;37.02;73.47;;
77361;Laerm;66427;51.798;10.954;2023-05-10T12:09:42;55.45;36.57;69.74;;
77361;Laerm;66427;51.798;10.954;2023-05-10T12:12:08;54.73;38.96;68.88;;
77361;Laerm;66427;51.798;10.954;2023-05-10T12:14:35;53.40;37.11;64.81;;
77361;Laerm;66427;51.798;10.954;2023-05-10T12:17:01;57.68;38.11;71.19;;
77361;Laerm;66427;51.798;10.954;2023-05-10T12:19:26;58.40;40.26;68.35;;
77361;Laerm;66427;51.798;10.954;2023-05-10T12:21:52;64.70;38.56;81.04;;
77361;Laerm;66427;51.798;10.954;2023-05-10T12:24:18;57.85;37.83;70.91;;
77361;Laerm;66427;51.798;10.954;2023-05-10T12:26:46;55.63;41.36;67.41;;
77361;Laerm;66427;51.798;10.954;2023-05-10T12:29:14;55.66;37.92;66.78;;
77361;Laerm;66427;51.798;10.954;2023-05-10T12:31:56;57.63;38.27;69.30;;
77361;Laerm;66427;51.798;10.954;2023-05-10T12:34:32;57.37;42.91;74.08;;
77361;Laerm;66427;51.798;10.954;2023-05-10T12:36:58;57.60;39.26;68.53;;
77361;Laerm;66427;51.798;10.954;2023-05-10T12:39:24;54.98;38.57;66.68;;
77361;Laerm;66427;51.798;10.954;2023-05-10T12:41:50;53.50;37.01;68.12;;
77361;Laerm;66427;51.798;10.954;2023-05-10T12:44:16;56.30;37.66;69.13;;
77361;Laerm;66427;51.798;10.954;2023-05-10T12:46:42;61.18;40.18;75.39;;
77361;Laerm;66427;51.798;10.954;2023-05-10T12:49:08;51.46;38.35;63.84;;
77361;Laerm;66427;51.798;10.954;2023-05-10T12:51:34;58.93;39.16;71.81;;
77361;Laerm;66427;51.798;10.954;2023-05-10T12:54:00;57.37;40.63;67.85;;
77361;Laerm;66427;51.798;10.954;2023-05-10T12:56:26;55.77;38.85;69.48;;
77361;Laerm;66427;51.798;10.954;2023-05-10T12:58:51;54.90;40.40;68.13;;
77361;Laerm;66427;51.798;10.954;2023-05-10T13:01:17;52.19;39.09;75.01;;
77361;Laerm;66427;51.798;10.954;2023-05-10T13:03:44;55.01;38.78;69.20;;
77361;Laerm;66427;51.798;10.954;2023-05-10T13:06:09;51.35;37.51;64.96;;
77361;Laerm;66427;51.798;10.954;2023-05-10T13:08:36;54.93;38.69;68.27;;
77361;Laerm;66427;51.798;10.954;2023-05-10T13:11:02;58.38;39.87;67.89;;
77361;Laerm;66427;51.798;10.954;2023-05-10T13:13:28;58.58;41.01;71.45;;
77361;Laerm;66427;51.798;10.954;2023-05-10T13:15:54;57.87;38.45;75.38;;
77361;Laerm;66427;51.798;10.954;2023-05-10T13:18:20;57.77;37.67;70.63;;
77361;Laerm;66427;51.798;10.954;2023-05-10T13:20:45;60.09;39.77;77.52;;
77361;Laerm;66427;51.798;10.954;2023-05-10T13:23:11;58.90;47.81;73.19;;
77361;Laerm;66427;51.798;10.954;2023-05-10T13:25:37;53.97;39.20;66.87;;
77361;Laerm;66427;51.798;10.954;2023-05-10T13:28:03;53.82;36.73;78.45;;
77361;Laerm;66427;51.798;10.954;2023-05-10T13:30:29;58.08;41.02;76.19;;
77361;Laerm;66427;51.798;10.954;2023-05-10T13:32:55;63.48;40.81;78.48;;
77361;Laerm;66427;51.798;10.954;2023-05-10T13:35:21;56.13;39.24;71.74;;
77361;Laerm;66427;51.798;10.954;2023-05-10T13:37:46;54.41;38.65;65.85;;
77361;Laerm;66427;51.798;10.954;2023-05-10T13:40:12;61.37;39.16;79.66;;
77361;Laerm;66427;51.798;10.954;2023-05-10T13:42:40;53.88;38.25;65.22;;
77361;Laerm;66427;51.798;10.954;2023-05-10T13:45:06;54.61;36.68;70.03;;
77361;Laerm;66427;51.798;10.954;2023-05-10T13:47:32;57.65;38.08;67.54;;
77361;Laerm;66427;51.798;10.954;2023-05-10T13:49:58;56.62;34.84;66.41;;
77361;Laerm;66427;51.798;10.954;2023-05-10T13:52:23;55.43;37.70;66.87;;
77361;Laerm;66427;51.798;10.954;2023-05-10T13:54:49;58.78;40.21;68.30;;
77361;Laerm;66427;51.798;10.954;2023-05-10T13:57:17;55.92;37.77;69.20;;
77361;Laerm;66427;51.798;10.954;2023-05-10T13:59:43;57.52;38.38;69.39;;